Time;durP1;ratioP1;P1;durP2;ratioP2;P2;SDS_P1;SDS_P2;PMS_P1;PMS_P2;Temp;Humidity;BMP_temperature;BMP_pressure;BME280_temperature;BME280_humidity;BME280_pressure;Samples;Min_cycle;Max_cycle;Signal;HPM_P1;HPM_P2
2021/01/26 00:01:24;;;;;;;37.28;27.80;;;;;;;1.26;72.41;99478.56;125384;1124;22421;-73
2021/01/26 00:03:52;;;;;;;32.63;26.13;;;;;;;1.26;72.33;99486.37;125538;1126;22437;-73
2021/01/26 00:06:21;;;;;;;35.00;26.65;;;;;;;1.24;72.10;99483.91;125524;1126;22446;-73
2021/01/26 00:08:49;;;;;;;34.65;26.30;;;;;;;1.22;72.40;99485.80;125634;1124;24313;-73
2021/01/26 00:11:17;;;;;;;36.95;26.40;;;;;;;1.19;72.03;99480.86;125490;1124;22525;-73
2021/01/26 00:13:46;;;;;;;34.85;26.25;;;;;;;1.17;71.88;99485.38;125500;1124;22525;-73
2021/01/26 00:16:14;;;;;;;35.25;27.15;;;;;;;1.15;72.04;99482.08;125479;1124;24850;-73
2021/01/26 00:18:44;;;;;;;33.80;26.53;;;;;;;1.17;72.20;99487.98;125418;1124;25001;-73
2021/01/26 00:21:12;;;;;;;34.33;26.62;;;;;;;1.21;72.73;99493.75;125632;1124;22431;-72
2021/01/26 00:23:40;;;;;;;29.82;25.10;;;;;;;1.22;72.33;99488.41;125577;1124;24533;-72
2021/01/26 00:26:09;;;;;;;30.40;23.02;;;;;;;1.25;72.26;99482.13;125447;1126;22497;-73
2021/01/26 00:28:37;;;;;;;29.72;23.25;;;;;;;1.26;72.55;99484.59;125480;1124;25768;-72
2021/01/26 00:31:04;;;;;;;28.40;23.15;;;;;;;1.28;71.89;99487.07;125526;1124;24523;-73
2021/01/26 00:33:33;;;;;;;31.23;21.77;;;;;;;1.31;72.45;99481.61;125506;1124;22434;-73
2021/01/26 00:36:04;;;;;;;29.30;20.95;;;;;;;1.32;72.13;99484.07;125528;1124;24557;-73
2021/01/26 00:38:32;;;;;;;24.37;19.10;;;;;;;1.32;71.00;99491.88;125432;1124;24539;-73
2021/01/26 00:41:00;;;;;;;20.80;17.02;;;;;;;1.31;71.31;99498.05;125541;1124;24559;-73
2021/01/26 00:43:28;;;;;;;24.77;18.37;;;;;;;1.26;70.97;99496.77;125460;1126;22412;-73
2021/01/26 00:45:56;;;;;;;23.33;17.47;;;;;;;1.22;71.51;99504.02;125565;1124;22494;-74
2021/01/26 00:48:24;;;;;;;22.60;17.42;;;;;;;1.19;70.81;99499.06;125633;1125;22438;-74
2021/01/26 00:50:52;;;;;;;20.88;15.72;;;;;;;1.20;70.82;99497.28;125388;1125;22420;-73
2021/01/26 00:53:20;;;;;;;22.98;17.25;;;;;;;1.23;70.30;99494.42;125496;1126;22422;-74
2021/01/26 00:56:00;;;;;;;23.95;17.32;;;;;;;1.23;70.13;99502.23;125608;1124;22431;-73
2021/01/26 00:58:28;;;;;;;20.32;16.52;;;;;;;1.25;70.03;99502.94;125463;1124;23295;-73
2021/01/26 01:00:57;;;;;;;24.75;18.15;;;;;;;1.23;69.85;99507.44;125547;1126;22425;-73
2021/01/26 01:03:26;;;;;;;23.02;16.90;;;;;;;1.21;69.64;99507.58;125540;1126;22417;-73
2021/01/26 01:05:54;;;;;;;21.27;15.48;;;;;;;1.22;69.76;99505.80;125499;1125;22431;-74
2021/01/26 01:08:22;;;;;;;20.82;15.60;;;;;;;1.23;69.54;99500.45;125582;1124;22415;-74
2021/01/26 01:10:52;;;;;;;19.65;15.70;;;;;;;1.25;69.54;99498.55;125484;1124;22425;-73
2021/01/26 01:13:20;;;;;;;19.30;15.72;;;;;;;1.28;69.33;99507.89;125438;1124;22414;-73
2021/01/26 01:15:49;;;;;;;22.32;18.10;;;;;;;1.30;69.51;99503.36;125392;1126;22769;-73
2021/01/26 01:18:17;;;;;;;25.82;17.67;;;;;;;1.29;69.00;99507.75;125526;1124;22873;-74
2021/01/26 01:20:46;;;;;;;23.52;17.62;;;;;;;1.29;69.10;99512.13;125621;1124;22414;-74
2021/01/26 01:23:14;;;;;;;22.32;18.98;;;;;;;1.29;69.93;99509.53;125568;1124;24306;-73
2021/01/26 01:25:42;;;;;;;25.27;19.62;;;;;;;1.30;69.45;99505.97;125521;1126;22504;-73
2021/01/26 01:28:10;;;;;;;23.83;18.82;;;;;;;1.29;69.87;99501.72;125490;1126;22721;-73
2021/01/26 01:30:38;;;;;;;23.15;18.67;;;;;;;1.30;69.28;99504.21;125570;1124;22507;-74
2021/01/26 01:33:06;;;;;;;27.15;20.68;;;;;;;1.32;69.50;99504.89;125588;1126;22415;-74
2021/01/26 01:35:35;;;;;;;27.17;22.82;;;;;;;1.32;70.05;99502.28;125608;1124;22440;-74
2021/01/26 01:38:03;;;;;;;27.40;22.57;;;;;;;1.30;70.08;99495.55;125512;1124;24555;-74
2021/01/26 01:40:34;;;;;;;29.30;24.82;;;;;;;1.30;69.93;99498.16;125546;1124;22400;-74
2021/01/26 01:43:03;;;;;;;30.45;25.40;;;;;;;1.29;69.96;99499.12;125511;1124;22416;-74
2021/01/26 01:45:31;;;;;;;28.60;25.23;;;;;;;1.27;69.76;99491.45;125422;1126;22440;-74
2021/01/26 01:48:07;;;;;;;30.60;25.12;;;;;;;1.28;70.10;99495.70;125600;1125;22441;-74
2021/01/26 01:50:42;;;;;;;32.30;24.95;;;;;;;1.29;70.59;99492.13;125649;1124;24577;-74
2021/01/26 01:53:21;;;;;;;35.15;26.62;;;;;;;1.29;70.34;99494.73;125593;1124;24546;-74
2021/01/26 01:56:09;;;;;;;31.25;26.93;;;;;;;1.30;70.17;99501.61;125491;1126;23493;-74
2021/01/26 01:58:45;;;;;;;33.02;25.97;;;;;;;1.27;71.22;99504.47;125557;1124;22493;-74
2021/01/26 02:01:18;;;;;;;32.00;26.48;;;;;;;1.26;70.44;99505.40;125660;1124;24542;-74
2021/01/26 02:04:00;;;;;;;35.90;28.62;;;;;;;1.27;70.74;99509.67;125583;1124;22731;-74
2021/01/26 02:06:31;;;;;;;;;;;;;;;1.22;71.08;99509.22;125676;1124;22423;-74
2021/01/26 02:09:09;;;;;;;34.55;27.67;;;;;;;1.14;71.35;99516.85;125566;1124;23873;-73
2021/01/26 02:11:37;;;;;;;37.28;27.50;;;;;;;1.12;71.16;99514.36;125686;1125;22448;-74
2021/01/26 02:14:05;;;;;;;33.92;28.42;;;;;;;1.12;71.44;99521.34;125492;1126;22538;-75
2021/01/26 02:17:01;;;;;;;29.55;25.55;;;;;;;1.14;71.89;99522.88;125554;1124;22431;-75
2021/01/26 02:20:06;;;;;;;35.25;27.77;;;;;;;1.14;71.90;99528.08;125584;1124;24351;-74
2021/01/26 02:23:12;;;;;;;32.88;27.20;;;;;;;1.15;72.23;99521.09;125598;1124;22433;-74
2021/01/26 02:26:21;;;;;;;35.68;26.65;;;;;;;1.17;72.25;99519.20;125581;1126;22435;-74
2021/01/26 02:28:49;;;;;;;30.80;26.60;;;;;;;1.17;72.48;99521.80;125485;1124;25115;-74
2021/01/26 02:31:39;;;;;;;32.83;27.85;;;;;;;1.18;72.28;99523.44;125546;1126;22519;-74
2021/01/26 02:35:02;;;;;;;33.33;27.50;;;;;;;1.17;71.89;99514.00;125556;1124;22440;-74
2021/01/26 02:38:04;;;;;;;36.57;28.87;;;;;;;1.17;72.21;99527.83;125465;1124;25280;-73
2021/01/26 02:40:50;;;;;;;36.55;27.85;;;;;;;1.21;72.24;99532.77;125516;1124;22417;-72
2021/01/26 02:44:03;;;;;;;32.73;27.75;;;;;;;1.23;72.22;99534.27;125460;1124;22667;-74
2021/01/26 02:46:42;;;;;;;35.40;29.10;;;;;;;1.17;72.55;99538.23;125342;1127;22440;-72
2021/01/26 02:49:51;;;;;;;34.50;27.93;;;;;;;1.18;72.42;99528.64;125293;1129;22456;-73
2021/01/26 02:52:38;;;;;;;31.00;26.70;;;;;;;1.16;72.99;99528.75;125342;1127;22486;-73
2021/01/26 02:55:15;;;;;;;35.15;27.73;;;;;;;1.22;72.64;99524.83;125289;1128;22907;-72
2021/01/26 02:58:04;;;;;;;34.27;28.07;;;;;;;1.26;73.25;99531.41;125268;1128;22489;-73
2021/01/26 03:00:36;;;;;;;40.92;30.50;;;;;;;1.31;72.98;99529.27;125320;1129;22454;-73
2021/01/26 03:03:25;;;;;;;35.40;28.98;;;;;;;1.33;72.70;99537.78;125019;1127;22448;-73
2021/01/26 03:06:29;;;;;;;39.38;31.68;;;;;;;1.30;72.94;99535.44;125077;1127;22440;-73
2021/01/26 03:09:16;;;;;;;38.50;29.45;;;;;;;1.31;72.87;99536.26;124880;1130;22458;-75
2021/01/26 03:11:55;;;;;;;38.35;30.37;;;;;;;1.34;73.04;99536.82;124848;1130;22768;-73
2021/01/26 03:14:41;;;;;;;38.73;31.77;;;;;;;1.34;72.28;99536.82;124834;1132;22580;-73
2021/01/26 03:17:24;;;;;;;34.67;30.82;;;;;;;1.34;72.29;99544.63;124853;1131;22654;-73
2021/01/26 03:19:54;;;;;;;;;;;;;;;1.33;72.00;99542.14;124902;1133;23389;-74
2021/01/26 03:22:27;;;;;;;38.88;30.90;;;;;;;1.29;72.71;99546.77;124904;1132;21331;-73
2021/01/26 03:24:57;;;;;;;40.30;32.37;;;;;;;1.32;72.84;99546.52;125040;1127;24659;-74
2021/01/26 03:27:35;;;;;;;34.43;29.82;;;;;;;1.36;72.46;99547.09;124976;1130;22435;-74
2021/01/26 03:30:08;;;;;;;34.18;28.70;;;;;;;1.37;72.81;99546.98;125390;1127;25221;-74
2021/01/26 03:32:45;;;;;;;38.13;29.72;;;;;;;1.39;72.74;99557.24;125381;1129;22799;-74
2021/01/26 03:35:14;;;;;;;35.38;30.88;;;;;;;1.40;72.40;99558.91;125363;1129;22446;-74
2021/01/26 03:37:52;;;;;;;35.83;29.80;;;;;;;1.41;72.91;99561.38;125389;1127;22457;-74
2021/01/26 03:40:21;;;;;;;35.67;30.03;;;;;;;1.41;72.98;99556.17;125022;1127;22545;-73
2021/01/26 03:42:49;;;;;;;37.13;29.37;;;;;;;1.42;72.12;99559.59;124977;1128;25831;-74
2021/01/26 03:45:17;;;;;;;35.77;31.33;;;;;;;1.40;72.26;99559.73;125026;1128;22429;-74
2021/01/26 03:48:25;;;;;;;32.15;27.45;;;;;;;1.43;72.11;99560.41;125550;1124;24281;-73
2021/01/26 03:51:09;;;;;;;35.23;29.87;;;;;;;1.40;73.02;99558.91;125631;1124;24242;-73
2021/01/26 03:54:10;;;;;;;38.08;29.12;;;;;;;1.36;72.79;99566.13;125632;1124;22519;-73
2021/01/26 03:57:07;;;;;;;33.15;27.70;;;;;;;1.35;72.37;99561.06;125642;1124;24606;-74
2021/01/26 04:00:34;;;;;;;34.35;28.77;;;;;;;1.32;72.19;99561.31;125520;1124;22882;-74
2021/01/26 04:03:20;;;;;;;35.33;28.50;;;;;;;1.29;72.39;99562.39;125376;1127;22407;-74
2021/01/26 04:06:02;;;;;;;33.40;28.45;;;;;;;1.28;72.86;99565.95;125339;1128;22442;-74
2021/01/26 04:08:50;;;;;;;32.08;27.17;;;;;;;1.31;73.12;99554.47;125323;1129;22444;-73
2021/01/26 04:11:37;;;;;;;29.82;26.68;;;;;;;1.35;72.49;99561.06;125395;1131;22493;-73
2021/01/26 04:14:11;;;;;;;32.80;27.58;;;;;;;1.37;73.03;99564.38;125358;1130;22526;-73
2021/01/26 04:16:48;;;;;;;38.43;29.33;;;;;;;1.39;72.36;99568.47;125371;1131;22441;-73
2021/01/26 04:19:24;;;;;;;36.25;30.32;;;;;;;1.37;73.22;99572.18;125426;1127;22921;-73
2021/01/26 04:21:52;;;;;;;34.35;28.00;;;;;;;1.36;72.74;99568.73;125396;1127;24558;-73
2021/01/26 04:24:20;;;;;;;34.18;27.07;;;;;;;1.37;72.28;99565.19;125400;1130;22899;-73
2021/01/26 04:26:49;;;;;;;31.12;24.85;;;;;;;1.40;72.57;99575.34;125356;1127;22429;-73
2021/01/26 04:29:17;;;;;;;34.27;28.35;;;;;;;1.40;72.52;99570.14;125351;1127;22431;-73
2021/01/26 04:31:45;;;;;;;31.15;26.82;;;;;;;1.40;72.74;99571.92;125337;1130;22553;-72
2021/01/26 04:34:13;;;;;;;35.87;27.60;;;;;;;1.34;72.35;99562.84;125437;1127;22648;-73
2021/01/26 04:36:42;;;;;;;31.77;26.73;;;;;;;1.35;72.25;99564.48;125462;1126;24390;-73
2021/01/26 04:39:10;;;;;;;31.52;25.75;;;;;;;1.36;73.26;99573.93;125485;1125;22434;-73
2021/01/26 04:41:53;;;;;;;31.55;26.62;;;;;;;1.35;72.57;99566.27;125503;1126;22429;-73
2021/01/26 04:44:40;;;;;;;31.82;25.75;;;;;;;1.33;72.70;99563.80;125625;1124;22405;-73
2021/01/26 04:47:39;;;;;;;34.75;29.42;;;;;;;1.33;72.92;99563.80;125404;1126;25933;-73
2021/01/26 04:50:28;;;;;;;31.33;25.50;;;;;;;1.34;72.71;99568.05;125483;1124;22423;-74
2021/01/26 04:53:05;;;;;;;34.80;27.77;;;;;;;1.33;72.19;99568.16;125533;1126;22482;-74
2021/01/26 04:56:21;;;;;;;35.13;27.48;;;;;;;1.31;73.12;99568.30;125576;1124;22441;-74
2021/01/26 04:59:17;;;;;;;30.82;25.00;;;;;;;1.28;72.56;99576.36;125476;1125;22440;-75
2021/01/26 05:02:03;;;;;;;32.10;25.65;;;;;;;1.29;73.01;99571.98;125448;1126;22450;-74
2021/01/26 05:04:44;;;;;;;30.27;24.18;;;;;;;1.27;73.25;99569.52;125557;1126;22442;-74
2021/01/26 05:07:33;;;;;;;32.00;24.55;;;;;;;1.28;72.46;99570.34;125476;1127;22446;-71
2021/01/26 05:10:49;;;;;;;33.43;24.90;;;;;;;1.28;72.82;99573.76;125466;1124;24367;-72
2021/01/26 05:13:28;;;;;;;30.80;25.63;;;;;;;1.25;73.35;99571.41;125498;1126;22447;-72
2021/01/26 05:16:15;;;;;;;32.45;25.65;;;;;;;1.28;72.69;99572.94;125432;1126;22425;-72
2021/01/26 05:19:04;;;;;;;31.93;25.92;;;;;;;1.30;72.90;99577.06;125444;1124;22431;-73
2021/01/26 05:21:32;;;;;;;35.40;28.17;;;;;;;1.27;72.46;99579.92;125486;1124;24287;-73
2021/01/26 05:24:30;;;;;;;38.63;28.45;;;;;;;1.26;72.43;99573.05;125544;1124;22425;-72
2021/01/26 05:27:01;;;;;;;32.67;25.77;;;;;;;1.27;72.64;99589.51;125592;1124;24214;-73
2021/01/26 05:29:30;;;;;;;36.10;27.73;;;;;;;1.27;73.09;99587.73;125433;1124;25908;-74
2021/01/26 05:32:03;;;;;;;36.23;27.77;;;;;;;1.29;73.23;99596.22;125389;1127;22421;-72
2021/01/26 05:34:35;;;;;;;33.78;28.52;;;;;;;1.29;73.06;99585.80;125454;1125;23287;-72
2021/01/26 05:37:07;;;;;;;37.17;29.13;;;;;;;1.29;72.70;99596.22;125461;1126;22432;-72
2021/01/26 05:40:05;;;;;;;37.08;28.50;;;;;;;1.29;72.44;99600.59;125441;1124;24552;-72
2021/01/26 05:42:34;;;;;;;36.08;29.05;;;;;;;1.27;72.26;99594.72;125437;1124;22525;-72
2021/01/26 05:45:35;;;;;;;34.13;25.72;;;;;;;1.27;72.48;99595.53;125360;1127;22470;-72
2021/01/26 05:48:18;;;;;;;35.00;27.62;;;;;;;1.23;73.14;99588.91;125588;1124;25780;-72
2021/01/26 05:50:49;;;;;;;37.83;29.02;;;;;;;1.24;72.98;99594.97;125560;1126;22443;-73
2021/01/26 05:53:30;;;;;;;35.30;29.12;;;;;;;1.22;72.73;99595.08;125542;1126;22421;-72
2021/01/26 05:56:13;;;;;;;37.98;27.93;;;;;;;1.22;72.90;99602.88;125524;1126;22425;-73
2021/01/26 05:58:49;;;;;;;41.68;30.75;;;;;;;1.20;72.99;99604.80;125531;1124;24625;-73
2021/01/26 06:01:24;;;;;;;50.63;36.53;;;;;;;1.20;72.54;99603.95;125427;1124;22425;-73
2021/01/26 06:04:12;;;;;;;53.40;39.67;;;;;;;1.21;72.81;99610.83;125642;1126;22967;-73
2021/01/26 06:07:01;;;;;;;59.03;40.92;;;;;;;1.18;72.57;99606.69;125529;1125;22451;-73
2021/01/26 06:09:41;;;;;;;58.50;40.73;;;;;;;1.20;72.54;99611.75;125484;1124;22475;-73
2021/01/26 06:12:12;;;;;;;51.13;39.90;;;;;;;1.18;73.12;99617.92;125482;1126;22420;-73
2021/01/26 06:14:44;;;;;;;46.23;35.85;;;;;;;1.20;72.76;99611.75;125484;1124;22541;-73
2021/01/26 06:17:24;;;;;;;45.83;34.92;;;;;;;1.19;73.29;99608.33;125565;1124;22425;-73
2021/01/26 06:20:24;;;;;;;46.00;33.02;;;;;;;1.20;72.74;99616.95;125540;1125;22440;-73
2021/01/26 06:22:52;;;;;;;44.93;33.30;;;;;;;1.16;72.61;99621.59;125442;1126;22438;-73
2021/01/26 06:25:33;;;;;;;37.85;30.65;;;;;;;1.19;72.67;99621.34;125414;1127;24549;-73
2021/01/26 06:28:34;;;;;;;39.80;32.17;;;;;;;1.21;72.57;99621.23;125418;1129;22479;-73
2021/01/26 06:32:18;;;;;;;41.83;31.57;;;;;;;1.20;72.97;99627.36;125516;1125;22476;-73
2021/01/26 06:35:28;;;;;;;42.83;29.10;;;;;;;1.18;72.99;99643.11;124970;1130;22630;-73
2021/01/26 06:38:52;;;;;;;40.85;30.30;;;;;;;1.17;72.78;99646.67;124611;1133;22467;-73
2021/01/26 06:41:38;;;;;;;40.45;31.05;;;;;;;1.15;72.54;99648.56;124828;1132;22472;-73
2021/01/26 06:44:45;;;;;;;44.20;32.85;;;;;;;1.22;73.34;99660.12;124585;1133;22441;-73
2021/01/26 06:47:26;;;;;;;36.13;28.95;;;;;;;1.25;73.57;99657.27;124542;1133;24409;-74
2021/01/26 06:50:24;;;;;;;40.45;29.55;;;;;;;1.35;72.77;99644.34;124651;1133;22560;-74
2021/01/26 06:53:25;;;;;;;36.83;30.35;;;;;;;1.43;73.86;99656.70;124602;1133;22473;-74
2021/01/26 06:56:48;;;;;;;43.80;32.65;;;;;;;1.46;72.99;99659.06;124871;1133;22475;-73
2021/01/26 06:59:44;;;;;;;40.23;30.37;;;;;;;1.41;72.69;99654.25;124510;1134;22943;-76
2021/01/26 07:02:57;;;;;;;40.38;31.60;;;;;;;1.43;73.27;99652.32;124510;1133;22472;-76
2021/01/26 07:05:34;;;;;;;38.23;30.50;;;;;;;1.45;73.52;99652.21;124632;1134;22461;-76
2021/01/26 07:08:52;;;;;;;39.60;29.80;;;;;;;1.47;72.87;99653.75;124904;1133;22651;-77
2021/01/26 07:11:38;;;;;;;40.00;30.63;;;;;;;1.51;73.36;99654.31;124565;1133;22519;-77
2021/01/26 07:14:28;;;;;;;45.25;34.78;;;;;;;1.53;72.77;99655.00;124771;1133;24443;-77
2021/01/26 07:17:04;;;;;;;46.02;33.13;;;;;;;1.52;72.45;99653.36;124913;1133;22478;-77
2021/01/26 07:20:09;;;;;;;43.57;32.93;;;;;;;1.52;72.26;99661.16;124647;1133;22499;-77
2021/01/26 07:23:24;;;;;;;47.10;35.35;;;;;;;1.54;72.55;99665.30;124948;1132;22465;-77
2021/01/26 07:26:19;;;;;;;48.13;35.27;;;;;;;1.58;72.66;99661.48;124543;1134;22571;-77
2021/01/26 07:29:20;;;;;;;38.55;30.62;;;;;;;1.60;72.82;99667.40;124579;1133;24323;-77
2021/01/26 07:31:56;;;;;;;36.75;29.00;;;;;;;1.67;72.59;99659.91;124149;1137;24684;-77
2021/01/26 07:34:50;;;;;;;41.83;32.63;;;;;;;1.69;72.62;99668.39;124215;1139;22502;-77
2021/01/26 07:37:30;;;;;;;40.20;33.00;;;;;;;1.72;72.65;99656.91;124228;1133;22500;-77
2021/01/26 07:40:23;;;;;;;39.20;32.28;;;;;;;1.76;72.19;99661.72;124595;1138;22482;-77
2021/01/26 07:42:56;;;;;;;47.90;34.25;;;;;;;1.74;72.34;99665.42;124209;1135;22502;-77
2021/01/26 07:45:34;;;;;;;37.90;31.82;;;;;;;1.73;72.41;99667.18;124651;1133;22471;-77
2021/01/26 07:48:21;;;;;;;46.40;34.08;;;;;;;1.77;72.96;99679.02;124931;1133;22472;-78
2021/01/26 07:50:54;;;;;;;42.93;33.73;;;;;;;1.81;72.27;99676.98;124655;1135;22596;-77
2021/01/26 07:53:35;;;;;;;41.75;34.92;;;;;;;1.83;72.15;99664.63;124839;1132;22491;-78
2021/01/26 07:56:33;;;;;;;43.30;34.65;;;;;;;1.87;71.93;99659.06;124671;1132;22578;-78
2021/01/26 07:59:16;;;;;;;45.33;34.45;;;;;;;1.92;72.94;99674.28;125062;1129;22529;-78
2021/01/26 08:01:59;;;;;;;45.65;36.50;;;;;;;1.97;72.33;99673.92;125627;1127;22430;-78
2021/01/26 08:04:40;;;;;;;46.80;36.93;;;;;;;1.98;72.81;99673.78;125611;1129;22550;-77
2021/01/26 08:07:21;;;;;;;43.30;34.65;;;;;;;2.02;72.76;99682.16;125346;1128;22436;-78
2021/01/26 08:09:52;;;;;;;39.13;33.35;;;;;;;2.06;72.58;99675.73;125517;1127;22913;-77
2021/01/26 08:12:40;;;;;;;44.10;36.13;;;;;;;2.10;72.70;99671.92;125680;1124;23309;-76
2021/01/26 08:15:12;;;;;;;41.83;36.20;;;;;;;2.15;72.17;99681.95;125600;1124;22522;-77
2021/01/26 08:17:41;;;;;;;;;;;;;;;2.13;72.35;99679.45;125527;1126;22440;-77
2021/01/26 08:20:28;;;;;;;41.90;34.53;;;;;;;2.16;72.86;99689.63;125498;1126;21314;-77
2021/01/26 08:23:19;;;;;;;44.45;37.15;;;;;;;2.15;71.56;99694.98;125616;1124;24992;-77
2021/01/26 08:25:50;;;;;;;40.73;33.75;;;;;;;2.12;72.09;99693.45;125582;1124;22434;-78
2021/01/26 08:28:40;;;;;;;39.23;33.15;;;;;;;2.12;71.29;99689.06;125466;1126;22435;-77
2021/01/26 08:31:39;;;;;;;50.40;36.83;;;;;;;2.13;71.38;99689.88;125450;1126;22427;-77
2021/01/26 08:34:25;;;;;;;45.85;34.70;;;;;;;2.12;71.57;99688.23;125469;1124;25085;-76
2021/01/26 08:37:24;;;;;;;46.13;38.00;;;;;;;2.14;71.20;99694.16;125529;1124;24552;-79
2021/01/26 08:39:54;;;;;;;43.65;36.13;;;;;;;2.11;72.19;99691.81;125355;1127;22443;-76
2021/01/26 08:42:41;;;;;;;40.12;33.90;;;;;;;2.18;71.96;99690.33;125442;1126;23450;-78
2021/01/26 08:45:18;;;;;;;41.98;34.70;;;;;;;2.18;72.08;99695.54;125651;1126;24294;-78
2021/01/26 08:47:54;;;;;;;49.15;36.88;;;;;;;2.20;71.16;99688.44;125417;1124;22418;-77
2021/01/26 08:50:30;;;;;;;38.17;34.15;;;;;;;2.22;72.05;99694.31;125444;1126;22427;-78
2021/01/26 08:53:26;;;;;;;46.35;36.42;;;;;;;2.26;71.96;99685.28;125706;1124;22432;-78
2021/01/26 08:56:23;;;;;;;42.88;34.05;;;;;;;2.27;71.60;99686.95;125600;1124;24600;-77
2021/01/26 08:58:57;;;;;;;44.00;38.63;;;;;;;2.31;72.17;99688.33;125680;1124;22585;-78
2021/01/26 09:01:41;;;;;;;39.15;33.83;;;;;;;2.36;71.88;99693.96;125583;1124;22967;-79
2021/01/26 09:04:12;;;;;;;42.30;35.40;;;;;;;2.39;71.23;99699.88;125618;1128;22451;-77
2021/01/26 09:06:43;;;;;;;43.28;36.58;;;;;;;2.38;71.50;99693.84;125505;1129;22434;-79
2021/01/26 09:09:21;;;;;;;48.60;39.65;;;;;;;2.38;71.58;99713.88;125902;1124;22428;-79
2021/01/26 09:11:57;;;;;;;43.28;36.38;;;;;;;2.36;70.98;99709.59;125590;1127;22438;-78
2021/01/26 09:14:41;;;;;;;43.37;36.17;;;;;;;2.39;71.74;99710.30;125547;1126;22544;-78
2021/01/26 09:17:20;;;;;;;43.68;35.85;;;;;;;2.34;71.57;99706.31;125496;1126;22513;-78
2021/01/26 09:19:57;;;;;;;45.53;36.87;;;;;;;2.32;71.57;99712.61;125467;1126;22420;-79
2021/01/26 09:22:31;;;;;;;46.65;38.10;;;;;;;2.32;71.16;99713.43;125651;1127;22453;-78
2021/01/26 09:25:17;;;;;;;44.18;35.92;;;;;;;2.35;71.73;99718.38;125463;1127;22529;-77
2021/01/26 09:28:11;;;;;;;44.35;34.85;;;;;;;2.31;71.10;99714.39;125441;1125;23220;-73
2021/01/26 09:30:47;;;;;;;45.90;37.73;;;;;;;2.29;71.40;99718.90;125531;1125;22438;-74
2021/01/26 09:33:23;;;;;;;50.83;40.73;;;;;;;2.27;70.65;99720.01;125413;1127;22427;-74
2021/01/26 09:36:01;;;;;;;46.80;39.50;;;;;;;2.22;71.04;99727.37;125492;1125;22427;-74
2021/01/26 09:38:35;;;;;;;49.38;39.42;;;;;;;2.19;71.60;99723.24;125431;1129;22427;-74
2021/01/26 09:41:12;;;;;;;47.60;39.48;;;;;;;2.19;71.17;99731.06;125584;1124;22427;-75
2021/01/26 09:43:50;;;;;;;52.40;41.98;;;;;;;2.18;70.95;99732.02;126403;1125;24527;-74
2021/01/26 09:46:35;;;;;;;43.33;37.08;;;;;;;2.18;71.67;99734.63;125703;1126;22785;-75
2021/01/26 09:49:19;;;;;;;43.60;37.13;;;;;;;2.21;71.03;99731.77;125651;1126;23371;-75
2021/01/26 09:52:03;;;;;;;48.02;37.67;;;;;;;2.23;71.18;99739.44;125527;1127;22427;-73
2021/01/26 09:54:35;;;;;;;44.08;37.00;;;;;;;2.25;70.92;99738.36;125674;1126;22441;-74
2021/01/26 09:57:07;;;;;;;46.75;38.78;;;;;;;2.25;71.55;99738.36;125513;1126;22488;-73
2021/01/26 09:59:37;;;;;;;45.73;36.88;;;;;;;2.24;71.52;99738.51;125500;1127;22449;-74
2021/01/26 10:02:12;;;;;;;45.92;39.30;;;;;;;2.25;70.65;99733.16;125510;1124;22444;-74
2021/01/26 10:04:43;;;;;;;49.73;39.92;;;;;;;2.28;71.09;99735.50;125490;1127;22427;-74
2021/01/26 10:07:23;;;;;;;45.73;40.78;;;;;;;2.28;70.87;99727.69;125420;1127;22427;-74
2021/01/26 10:09:52;;;;;;;49.13;39.80;;;;;;;2.31;71.04;99739.64;125532;1127;22433;-74
2021/01/26 10:12:31;;;;;;;46.68;41.73;;;;;;;2.34;71.06;99747.20;125472;1127;22524;-74
2021/01/26 10:15:30;;;;;;;45.67;38.20;;;;;;;2.33;71.41;99746.38;125625;1126;22435;-74
2021/01/26 10:18:13;;;;;;;55.70;48.98;;;;;;;2.33;71.40;99748.98;125646;1126;25126;-74
2021/01/26 10:20:45;;;;;;;44.53;37.30;;;;;;;2.36;71.39;99756.52;125618;1126;22446;-74
2021/01/26 10:23:28;;;;;;;41.42;35.55;;;;;;;2.36;70.98;99751.30;125645;1124;22425;-74
2021/01/26 10:26:20;;;;;;;39.47;34.80;;;;;;;2.39;70.77;99752.02;125460;1126;23217;-74
2021/01/26 10:29:07;;;;;;;44.18;34.88;;;;;;;2.40;70.53;99751.90;125620;1127;22464;-74
2021/01/26 10:31:54;;;;;;;41.50;36.40;;;;;;;2.40;70.35;99749.30;125651;1125;24552;-73
2021/01/26 10:34:35;;;;;;;47.62;39.00;;;;;;;2.40;70.95;99753.66;125575;1127;22423;-74
2021/01/26 10:37:21;;;;;;;41.37;35.33;;;;;;;2.40;70.84;99754.50;125733;1124;22446;-74
2021/01/26 10:40:32;;;;;;;41.90;37.40;;;;;;;2.44;70.56;99762.89;125704;1124;23296;-74
2021/01/26 10:43:11;;;;;;;47.62;39.03;;;;;;;2.47;70.40;99758.23;125545;1127;22430;-74
2021/01/26 10:45:53;;;;;;;49.83;39.53;;;;;;;2.47;70.99;99754.81;125711;1124;24555;-74
2021/01/26 10:48:33;;;;;;;49.42;39.53;;;;;;;2.49;70.12;99756.31;125584;1126;24476;-73
2021/01/26 10:51:17;;;;;;;45.12;37.88;;;;;;;2.54;70.78;99756.75;125740;1126;22529;-74
2021/01/26 10:53:47;;;;;;;;;;;;;;;2.50;69.75;99755.38;125575;1126;22428;-73
2021/01/26 10:56:16;;;;;;;39.35;32.83;;;;;;;2.46;69.86;99760.96;125795;1124;21351;-74
2021/01/26 10:58:46;;;;;;;37.58;31.70;;;;;;;2.47;69.95;99760.02;125706;1127;22429;-74
2021/01/26 11:01:22;;;;;;;38.58;34.25;;;;;;;2.50;70.21;99763.20;125699;1126;24546;-73
2021/01/26 11:03:53;;;;;;;46.00;38.75;;;;;;;2.56;70.83;99761.83;125606;1126;22525;-73
2021/01/26 11:06:24;;;;;;;56.85;45.05;;;;;;;2.62;69.87;99763.91;125526;1126;22455;-74
2021/01/26 11:08:54;;;;;;;64.62;51.18;;;;;;;2.65;70.47;99766.27;125724;1124;24571;-73
2021/01/26 11:11:26;;;;;;;46.85;38.78;;;;;;;2.66;70.01;99764.48;125496;1124;22429;-73
2021/01/26 11:13:58;;;;;;;43.08;35.68;;;;;;;2.65;69.47;99762.84;125603;1126;23252;-73
2021/01/26 11:16:26;;;;;;;43.85;36.73;;;;;;;2.64;70.05;99762.02;125500;1124;22419;-73
2021/01/26 11:18:56;;;;;;;42.88;38.25;;;;;;;2.64;70.01;99769.02;125547;1127;22440;-73
2021/01/26 11:21:24;;;;;;;38.78;32.98;;;;;;;2.62;69.12;99766.52;125543;1127;22422;-74
2021/01/26 11:23:54;;;;;;;38.42;34.33;;;;;;;2.64;69.75;99764.63;125818;1126;22437;-74
2021/01/26 11:26:23;;;;;;;42.67;34.23;;;;;;;2.65;69.50;99763.66;125736;1124;22547;-74
2021/01/26 11:28:53;;;;;;;37.73;33.48;;;;;;;2.65;69.06;99760.23;125504;1125;25013;-74
2021/01/26 11:31:21;;;;;;;36.17;32.28;;;;;;;2.69;69.66;99762.42;125603;1129;22428;-75
2021/01/26 11:33:49;;;;;;;40.00;32.38;;;;;;;2.76;70.16;99753.11;125676;1124;24249;-75
2021/01/26 11:36:17;;;;;;;38.20;34.23;;;;;;;2.79;69.21;99762.47;125539;1126;22423;-75
2021/01/26 11:39:18;;;;;;;41.63;37.23;;;;;;;2.89;69.74;99757.28;128419;1100;23365;-73
2021/01/26 11:41:46;;;;;;;44.18;37.33;;;;;;;3.03;69.81;99762.12;128296;1100;22610;-75
2021/01/26 11:44:14;;;;;;;41.37;36.53;;;;;;;3.17;69.67;99769.59;128034;1101;22519;-74
2021/01/26 11:46:43;;;;;;;43.78;37.42;;;;;;;3.20;69.23;99761.49;128387;1101;22494;-75
2021/01/26 11:49:11;;;;;;;40.63;35.05;;;;;;;3.20;68.74;99769.32;128150;1101;22519;-74
2021/01/26 11:51:39;;;;;;;42.15;34.88;;;;;;;3.17;69.02;99759.15;128103;1101;22521;-74
2021/01/26 11:54:08;;;;;;;39.10;34.35;;;;;;;3.17;68.71;99758.33;128391;1100;22548;-74
2021/01/26 11:56:36;;;;;;;38.38;34.00;;;;;;;3.16;68.49;99760.09;128302;1100;22495;-74
2021/01/26 11:59:04;;;;;;;41.05;35.45;;;;;;;3.13;67.83;99760.35;128350;1101;22613;-73
2021/01/26 12:01:32;;;;;;;40.20;34.70;;;;;;;3.08;67.68;99757.34;128371;1101;22507;-74
2021/01/26 12:04:00;;;;;;;33.95;30.23;;;;;;;3.04;67.50;99758.57;128265;1099;22610;-74
2021/01/26 12:06:29;;;;;;;39.30;34.33;;;;;;;3.02;68.09;99761.30;128305;1101;22514;-73
2021/01/26 12:08:58;;;;;;;40.83;33.47;;;;;;;3.03;67.52;99759.51;128388;1101;22522;-74
2021/01/26 12:11:26;;;;;;;38.78;33.33;;;;;;;3.08;68.60;99756.52;128345;1101;25109;-73
2021/01/26 12:13:56;;;;;;;35.85;31.23;;;;;;;3.14;67.97;99755.98;128428;1101;22523;-73
2021/01/26 12:16:24;;;;;;;38.98;33.75;;;;;;;3.19;67.47;99759.82;128378;1099;22470;-73
2021/01/26 12:18:55;;;;;;;38.17;34.00;;;;;;;3.25;67.51;99754.06;128338;1101;24223;-73